Georgia Highway — 7JCV — position and weather

sailwx.info

Track history (hours):
 
Tides and Currents Weather Stations Pressure Air Temp Water Temp Dewpoint Dewpoint Depression Visibility Wind Speed Wind Dir Waves Ship Positions

Georgia Highway

Last reported at 2016-May-28 21:20 UTC. Time now 2016-May-29 05:50 UTC.
Position N 22°07' E 114°29'.

Length 200 m; draft 8.9 m.

Type: Cargo ship. MMSI: 432629000.

Date/timePositionNaut miles runAvg speedWind from/ knotsBaromVisibWave heightAir tempDewpointWater temp
2016-May-28 21:20N 22°07' E 114°29'1417.6
2016-May-28 20:33N 22°07' E 114°14'1716.9
2016-May-28 19:33N 22°07' E 113°56'9 9.2
2016-May-28 18:33N 22°11' E 113°47'1312.8
2016-May-28 17:33N 22°24' E 113°46'1813.5
2016-May-28 16:12N 22°42' E 113°41'21 2.7
2016-May-28 08:32N 23°01' E 113°32'0 0.0
2016-May-28 07:32N 23°01' E 113°32'0 0.0
2016-May-28 05:32N 23°01' E 113°32'0 0.0
2016-May-28 03:08N 23°01' E 113°32'0 0.0
2016-May-28 02:33N 23°01' E 113°32'2 2.2
2016-May-28 01:33N 22°59' E 113°32'9 9.5
2016-May-28 00:33N 22°50' E 113°35'8 1.1
2016-May-27 17:32N 22°43' E 113°41'10 9.8
2016-May-27 16:33N 22°51' E 113°34'9 9.4
2016-May-27 15:33N 23°00' E 113°32'3 2.7
2016-May-27 14:32N 22°57' E 113°33'6 5.8
2016-May-27 13:33N 22°52' E 113°34'8 8.1
2016-May-27 12:33N 22°45' E 113°39'12 9.9
2016-May-27 11:20N 22°34' E 113°43'1212.7
2016-May-27 10:22N 22°22' E 113°47'1011.9
2016-May-27 09:33N 22°12' E 113°48'7 7.0
2016-May-27 08:33N 22°06' E 113°50'  
2016-May-23 01:06N 01°15' E 104°05'916.7
2016-May-23 00:34N 01°13' E 103°56'9 8.8
2016-May-22 23:33N 01°14' E 103°47'2 1.7
2016-May-22 22:33N 01°14' E 103°49'0 0.0
2016-May-22 21:30N 01°14' E 103°49'0 0.0
2016-May-22 20:33N 01°14' E 103°49'0 0.1
2016-May-22 19:33N 01°14' E 103°49'0 0.0
2016-May-22 18:33N 01°14' E 103°49'0 0.0
2016-May-22 17:33N 01°14' E 103°49'0 0.0
2016-May-22 16:18N 01°14' E 103°49'0 0.0
2016-May-22 15:27N 01°14' E 103°49'0 0.1
2016-May-22 14:30N 01°14' E 103°49'0 0.0
2016-May-22 13:33N 01°14' E 103°49'0 0.1
2016-May-22 12:30N 01°14' E 103°49'0 0.0
2016-May-22 10:33N 01°14' E 103°49'0 0.0
2016-May-22 09:15N 01°14' E 103°49'0 0.0
2016-May-22 08:24N 01°14' E 103°49'0 0.0
2016-May-22 07:33N 01°14' E 103°49'3 3.3
2016-May-22 06:33N 01°16' E 103°46'1 1.4
2016-May-22 05:33N 01°17' E 103°45'0 0.0
2016-May-22 04:33N 01°17' E 103°45'0 0.0
2016-May-22 03:30N 01°17' E 103°45'0 0.4
2016-May-22 02:33N 01°17' E 103°45'7 6.5
2016-May-22 01:33N 01°12' E 103°40'79 9.7
2016-May-21 17:27N 01°46' E 102°29'1213.6
2016-May-21 16:33N 01°53' E 102°18'  
Track history (hours):
 
Tides and Currents Weather Stations Pressure Air Temp Water Temp Dewpoint Dewpoint Depression Visibility Wind Speed Wind Dir Waves Ship Positions

Georgia Highway

Last reported at 2016-May-28 21:20 UTC. Time now 2016-May-29 05:50 UTC.
Position N 22°07' E 114°29'.

Length 200 m; draft 8.9 m.

Type: Cargo ship. MMSI: 432629000.

Date/timePositionNaut miles runAvg speedWind from/ knotsBaromVisibWave heightAir tempDewpointWater temp
2016-May-28 21:20N 22°07' E 114°29'1417.6
2016-May-28 20:33N 22°07' E 114°14'1716.9
2016-May-28 19:33N 22°07' E 113°56'9 9.2
2016-May-28 18:33N 22°11' E 113°47'1312.8
2016-May-28 17:33N 22°24' E 113°46'1813.5
2016-May-28 16:12N 22°42' E 113°41'21 2.7
2016-May-28 08:32N 23°01' E 113°32'0 0.0
2016-May-28 07:32N 23°01' E 113°32'0 0.0
2016-May-28 05:32N 23°01' E 113°32'0 0.0
2016-May-28 03:08N 23°01' E 113°32'0 0.0
2016-May-28 02:33N 23°01' E 113°32'2 2.2
2016-May-28 01:33N 22°59' E 113°32'9 9.5
2016-May-28 00:33N 22°50' E 113°35'8 1.1
2016-May-27 17:32N 22°43' E 113°41'10 9.8
2016-May-27 16:33N 22°51' E 113°34'9 9.4
2016-May-27 15:33N 23°00' E 113°32'3 2.7
2016-May-27 14:32N 22°57' E 113°33'6 5.8
2016-May-27 13:33N 22°52' E 113°34'8 8.1
2016-May-27 12:33N 22°45' E 113°39'12 9.9
2016-May-27 11:20N 22°34' E 113°43'1212.7
2016-May-27 10:22N 22°22' E 113°47'1011.9
2016-May-27 09:33N 22°12' E 113°48'7 7.0
2016-May-27 08:33N 22°06' E 113°50'  
2016-May-23 01:06N 01°15' E 104°05'916.7
2016-May-23 00:34N 01°13' E 103°56'9 8.8
2016-May-22 23:33N 01°14' E 103°47'2 1.7
2016-May-22 22:33N 01°14' E 103°49'0 0.0
2016-May-22 21:30N 01°14' E 103°49'0 0.0
2016-May-22 20:33N 01°14' E 103°49'0 0.1
2016-May-22 19:33N 01°14' E 103°49'0 0.0
2016-May-22 18:33N 01°14' E 103°49'0 0.0
2016-May-22 17:33N 01°14' E 103°49'0 0.0
2016-May-22 16:18N 01°14' E 103°49'0 0.0
2016-May-22 15:27N 01°14' E 103°49'0 0.1
2016-May-22 14:30N 01°14' E 103°49'0 0.0
2016-May-22 13:33N 01°14' E 103°49'0 0.1
2016-May-22 12:30N 01°14' E 103°49'0 0.0
2016-May-22 10:33N 01°14' E 103°49'0 0.0
2016-May-22 09:15N 01°14' E 103°49'0 0.0
2016-May-22 08:24N 01°14' E 103°49'0 0.0
2016-May-22 07:33N 01°14' E 103°49'3 3.3
2016-May-22 06:33N 01°16' E 103°46'1 1.4
2016-May-22 05:33N 01°17' E 103°45'0 0.0
2016-May-22 04:33N 01°17' E 103°45'0 0.0
2016-May-22 03:30N 01°17' E 103°45'0 0.4
2016-May-22 02:33N 01°17' E 103°45'7 6.5
2016-May-22 01:33N 01°12' E 103°40'79 9.7
2016-May-21 17:27N 01°46' E 102°29'1213.6
2016-May-21 16:33N 01°53' E 102°18'  

Dump ship's entire track history